Time;durP1;ratioP1;P1;durP2;ratioP2;P2;SDS_P1;SDS_P2;PMS_P1;PMS_P2;Temp;Humidity;BMP_temperature;BMP_pressure;BME280_temperature;BME280_humidity;BME280_pressure;Samples;Min_cycle;Max_cycle;Signal;HPM_P1;HPM_P2
2022/12/28 00:39:53;;;;;;;8.65;5.68;;;;;;;3.47;75.01;100687.63;1086908;54;20060;-82
2022/12/28 00:40:57;;;;;;;8.90;5.70;;;;;;;3.35;75.22;100696.22;1086917;54;20053;-80
2022/12/28 00:42:01;;;;;;;9.63;6.13;;;;;;;3.41;75.46;100690.59;1086932;54;20046;-81
2022/12/28 00:43:03;;;;;;;10.55;5.57;;;;;;;3.41;75.38;100688.81;1087107;54;20026;-81
2022/12/28 00:44:07;;;;;;;10.73;6.20;;;;;;;3.52;75.19;100685.56;1087036;54;20025;-81
2022/12/28 00:45:12;;;;;;;10.85;5.53;;;;;;;3.49;75.16;100683.13;1087081;54;20074;-81
2022/12/28 00:46:14;;;;;;;10.40;5.22;;;;;;;3.52;75.23;100680.28;1086963;54;20061;-81
2022/12/28 00:47:18;;;;;;;12.38;6.28;;;;;;;3.53;75.27;100681.16;1087000;54;20030;-81
2022/12/28 00:48:21;;;;;;;12.52;6.07;;;;;;;3.58;75.11;100685.25;1086936;54;20034;-80
2022/12/28 00:49:25;;;;;;;9.45;5.30;;;;;;;3.64;75.24;100675.28;1086990;54;20037;-81
2022/12/28 00:50:26;;;;;;;10.13;6.15;;;;;;;3.59;75.35;100684.31;1087099;54;20030;-80
2022/12/28 00:51:31;;;;;;;12.50;6.38;;;;;;;3.61;75.56;100672.78;1087055;54;20034;-80
2022/12/28 00:52:33;;;;;;;10.30;5.60;;;;;;;3.61;75.54;100678.06;1087005;54;20034;-81
2022/12/28 00:53:37;;;;;;;9.52;5.60;;;;;;;3.58;75.50;100682.63;1086987;54;20061;-81
2022/12/28 00:54:39;;;;;;;14.52;6.50;;;;;;;3.51;75.56;100683.03;1087079;54;20038;-81
2022/12/28 00:55:44;;;;;;;8.30;5.03;;;;;;;3.62;75.47;100677.16;1087090;54;20035;-81
2022/12/28 00:56:50;;;;;;;10.05;5.78;;;;;;;3.63;75.18;100657.69;1087037;54;20061;-81
2022/12/28 00:57:52;;;;;;;9.80;6.22;;;;;;;3.53;75.69;100671.44;1087066;54;20057;-82
2022/12/28 00:58:59;;;;;;;11.45;6.00;;;;;;;3.51;75.54;100664.53;1087009;54;20042;-81
2022/12/28 01:00:03;;;;;;;11.55;5.85;;;;;;;3.46;75.77;100659.50;1087137;54;20053;-81
2022/12/28 01:01:12;;;;;;;8.80;5.70;;;;;;;3.46;76.03;100656.84;1087059;54;20038;-81
2022/12/28 01:02:14;;;;;;;9.23;5.80;;;;;;;3.54;75.59;100659.91;1087095;54;20863;-82
2022/12/28 01:03:25;;;;;;;8.57;5.55;;;;;;;3.49;75.96;100664.63;1087066;54;20263;-79
2022/12/28 01:04:31;;;;;;;11.02;5.80;;;;;;;3.41;76.31;100664.16;1087062;54;20038;-82
2022/12/28 01:05:35;;;;;;;10.13;6.00;;;;;;;3.47;76.21;100660.31;1087061;54;20034;-80
2022/12/28 01:06:39;;;;;;;8.25;5.45;;;;;;;3.45;76.18;100647.22;1086963;54;20040;-81
2022/12/28 01:07:41;;;;;;;10.25;5.80;;;;;;;3.55;75.72;100645.75;1087035;54;20030;-81
2022/12/28 01:10:02;;;;;;;10.98;5.97;;;;;;;3.61;75.68;100641.06;1087308;54;20037;-80
2022/12/28 01:11:07;;;;;;;9.23;5.80;;;;;;;3.70;75.24;100641.41;1087357;54;20065;-80
2022/12/28 01:12:14;;;;;;;8.88;5.20;;;;;;;3.57;75.68;100633.31;1087365;54;20052;-81
2022/12/28 01:13:15;;;;;;;11.13;5.90;;;;;;;3.61;75.66;100641.94;1088735;46;20042;-81
2022/12/28 01:14:20;;;;;;;12.70;6.32;;;;;;;3.55;75.94;100648.41;1087436;54;20039;-81
2022/12/28 01:15:22;;;;;;;11.30;5.70;;;;;;;3.58;75.86;100639.44;1087459;54;20079;-81
2022/12/28 01:16:28;;;;;;;7.70;4.70;;;;;;;3.62;75.68;100638.34;1088487;46;20034;-80
2022/12/28 01:17:29;;;;;;;8.85;5.50;;;;;;;3.63;75.64;100640.06;1087448;54;20027;-81
2022/12/28 01:18:33;;;;;;;7.55;5.00;;;;;;;3.71;75.54;100642.25;1087971;46;20058;-80
2022/12/28 01:19:35;;;;;;;9.02;4.95;;;;;;;3.58;75.70;100642.97;1088196;46;20034;-81
2022/12/28 01:20:41;;;;;;;9.85;5.20;;;;;;;3.56;75.85;100643.97;1088564;46;20042;-81
2022/12/28 01:21:42;;;;;;;8.10;5.10;;;;;;;3.55;76.03;100648.41;1087546;54;20061;-81
2022/12/28 01:22:46;;;;;;;8.85;5.68;;;;;;;3.49;76.16;100632.03;1087733;54;20034;-81
2022/12/28 01:23:48;;;;;;;11.93;6.00;;;;;;;3.52;75.87;100629.22;1087695;46;20292;-82
2022/12/28 01:24:53;;;;;;;10.10;5.88;;;;;;;3.53;75.94;100631.78;1087621;54;20037;-81
2022/12/28 01:25:54;;;;;;;10.23;5.50;;;;;;;3.56;76.13;100628.97;1087693;54;20034;-81
2022/12/28 01:26:58;;;;;;;11.18;5.47;;;;;;;3.52;76.08;100622.13;1087836;54;20030;-80
2022/12/28 01:28:02;;;;;;;9.52;5.60;;;;;;;3.56;76.16;100622.81;1087735;54;20035;-81
2022/12/28 01:29:06;;;;;;;10.82;5.70;;;;;;;3.52;76.12;100626.56;1087705;54;20030;-81
2022/12/28 01:30:12;;;;;;;8.05;5.10;;;;;;;3.65;75.87;100624.09;1087812;54;20046;-81
2022/12/28 01:31:18;;;;;;;9.77;5.95;;;;;;;3.48;76.08;100625.91;1087784;54;20035;-81
2022/12/28 01:32:19;;;;;;;8.77;5.03;;;;;;;3.66;75.86;100623.16;1087702;54;20034;-80
2022/12/28 01:33:23;;;;;;;7.82;5.18;;;;;;;3.59;75.94;100623.47;1087671;54;20030;-80
2022/12/28 01:34:27;;;;;;;8.80;4.68;;;;;;;3.66;75.85;100620.53;1087730;54;20039;-80
2022/12/28 01:35:29;;;;;;;7.85;4.85;;;;;;;3.67;75.86;100616.94;1087735;54;20070;-81
2022/12/28 01:54:58;;;;;;;7.82;3.88;;;;;;;4.00;74.23;100582.41;1087378;54;20094;-82
2022/12/28 01:55:59;;;;;;;9.63;4.95;;;;;;;3.89;74.65;100580.38;1086588;54;20079;-80
2022/12/28 01:57:04;;;;;;;6.22;3.80;;;;;;;3.79;74.89;100587.13;1087258;46;20423;-80
2022/12/28 01:58:10;;;;;;;9.15;4.10;;;;;;;3.75;75.48;100589.09;1086980;54;20069;-81
2022/12/28 01:59:14;;;;;;;8.77;4.78;;;;;;;3.72;75.67;100584.00;1086985;54;20038;-80
2022/12/28 02:00:17;;;;;;;9.25;4.88;;;;;;;3.74;75.62;100576.81;1086962;54;20045;-80
2022/12/28 02:01:22;;;;;;;11.80;4.20;;;;;;;3.95;75.18;100575.69;1086920;54;20034;-80
2022/12/28 09:16:34;;;;;;;;;;;;;;;7.92;61.61;100215.84;1087625;54;20040;-83
2022/12/28 09:18:02;;;;;;;4.35;1.77;;;;;;;8.02;61.57;100220.44;1088105;54;19942;-81
2022/12/28 09:19:08;;;;;;;4.13;1.63;;;;;;;8.08;61.56;100219.91;1087747;54;20057;-81
2022/12/28 09:20:13;;;;;;;3.58;1.30;;;;;;;7.96;61.65;100217.28;1087529;54;20038;-80
2022/12/28 09:21:16;;;;;;;3.42;1.50;;;;;;;8.13;61.31;100212.38;1087622;54;20030;-81
2022/12/28 09:22:21;;;;;;;5.00;1.60;;;;;;;8.17;61.13;100215.66;1087677;54;20042;-80
2022/12/28 09:23:23;;;;;;;6.32;1.67;;;;;;;7.93;61.55;100217.53;1088736;46;20062;-82
2022/12/28 09:24:27;;;;;;;3.88;1.50;;;;;;;7.85;61.99;100219.09;1087589;54;20708;-81
2022/12/28 09:25:29;;;;;;;4.50;1.15;;;;;;;8.02;61.96;100217.75;1087514;54;20042;-80
2022/12/28 09:26:36;;;;;;;3.83;1.60;;;;;;;7.99;61.77;100221.50;1087657;54;20038;-80
2022/12/28 09:27:40;;;;;;;3.97;1.50;;;;;;;7.95;61.70;100215.56;1087905;54;20046;-80
2022/12/28 09:28:44;;;;;;;6.35;1.60;;;;;;;7.97;61.71;100218.97;1088539;46;20030;-80
2022/12/28 09:29:48;;;;;;;4.43;1.50;;;;;;;7.90;61.88;100217.78;1087837;54;20030;-80
2022/12/28 09:30:49;;;;;;;4.03;1.70;;;;;;;7.92;61.92;100221.16;1087583;54;20058;-80
2022/12/28 09:31:56;;;;;;;4.57;1.60;;;;;;;7.84;62.30;100212.91;1087455;54;20042;-80
2022/12/28 09:34:17;;;;;;;4.47;1.63;;;;;;;7.92;62.09;100222.97;1087292;54;20041;-81
2022/12/28 09:35:18;;;;;;;4.80;1.52;;;;;;;7.94;62.04;100216.53;1087339;54;20066;-80
2022/12/28 09:36:23;;;;;;;3.20;1.30;;;;;;;7.88;62.21;100224.19;1088172;46;20030;-81
2022/12/28 09:37:27;;;;;;;4.18;1.77;;;;;;;8.02;61.89;100215.09;1087450;54;20800;-81
2022/12/28 09:38:30;;;;;;;4.18;1.65;;;;;;;7.92;62.05;100210.53;1087545;54;20111;-82
2022/12/28 09:39:34;;;;;;;5.63;1.40;;;;;;;7.90;62.29;100211.59;1087427;54;20034;-80
2022/12/28 09:40:37;;;;;;;3.53;1.40;;;;;;;8.06;61.83;100212.06;1088106;46;20042;-82
2022/12/28 09:41:47;;;;;;;3.55;1.50;;;;;;;7.95;62.07;100212.06;1087434;54;20320;-81
2022/12/28 09:42:48;;;;;;;5.75;1.85;;;;;;;7.90;62.58;100206.25;1088160;46;20030;-81
2022/12/28 09:43:54;;;;;;;7.82;1.70;;;;;;;7.97;61.99;100212.81;1087458;54;20042;-80
2022/12/28 09:45:06;;;;;;;5.07;1.40;;;;;;;8.02;62.07;100209.78;1089924;46;20057;-80
2022/12/28 09:46:10;;;;;;;4.10;1.48;;;;;;;7.86;62.48;100210.16;1087358;54;20041;-80
2022/12/28 09:47:43;;;;;;;6.28;1.50;;;;;;;7.87;62.36;100204.69;1087478;54;20034;-81
2022/12/28 09:48:49;;;;;;;4.40;1.70;;;;;;;7.75;62.89;100201.22;1087867;46;20057;-78
2022/12/28 09:50:22;;;;;;;4.43;1.80;;;;;;;7.81;62.81;100213.19;1087496;46;20034;-79
2022/12/28 09:51:33;;;;;;;4.28;1.63;;;;;;;7.74;62.72;100202.19;1087631;47;20068;-79
2022/12/28 10:03:17;;;;;;;4.32;1.75;;;;;;;8.16;61.94;100192.66;1087673;54;20022;-80
2022/12/28 10:04:21;;;;;;;4.03;1.63;;;;;;;8.23;61.73;100192.03;1092131;31;20701;-80
2022/12/28 10:18:58;;;;;;;4.90;1.75;;;;;;;9.01;59.25;100158.97;1087635;54;20035;-79
2022/12/28 10:22:10;;;;;;;4.30;1.80;;;;;;;9.44;58.74;100155.25;1087559;54;20038;-80
2022/12/28 10:25:21;;;;;;;6.13;1.85;;;;;;;9.43;58.02;100142.88;1087415;54;20041;-81
2022/12/28 10:26:25;;;;;;;4.78;1.60;;;;;;;9.56;58.34;100147.13;1087584;54;20038;-81
2022/12/28 10:27:33;;;;;;;4.00;1.60;;;;;;;9.72;57.75;100151.94;1088417;47;20034;-81
2022/12/28 10:28:45;;;;;;;4.32;1.60;;;;;;;9.93;57.24;100146.50;1093671;47;20061;-81
2022/12/28 10:29:49;;;;;;;5.38;1.70;;;;;;;9.84;57.39;100140.19;1087268;54;20035;-80
2022/12/28 10:31:06;;;;;;;3.90;1.40;;;;;;;10.10;56.44;100137.84;1088776;47;20030;-80
2022/12/28 10:32:11;;;;;;;6.00;1.58;;;;;;;10.34;56.70;100131.22;1087825;47;20032;-80
2022/12/28 10:33:16;;;;;;;5.35;2.05;;;;;;;10.25;56.52;100134.72;1087710;54;20035;-80
2022/12/28 10:34:23;;;;;;;4.15;1.50;;;;;;;10.34;56.50;100138.41;1088651;46;20058;-81
2022/12/28 10:37:07;;;;;;;5.03;1.50;;;;;;;10.22;55.69;100145.69;1087855;54;20094;-83
2022/12/28 10:50:51;;;;;;;4.00;1.73;;;;;;;9.86;56.13;100121.34;1091037;31;20815;-79
2022/12/28 10:52:09;;;;;;;5.18;1.75;;;;;;;9.83;56.63;100122.47;1087776;54;21072;-81
2022/12/28 11:02:38;;;;;;;5.10;1.48;;;;;;;9.87;56.71;100099.81;1087436;54;20043;-80
2022/12/28 11:04:07;;;;;;;4.28;1.75;;;;;;;9.69;57.20;100105.00;1088134;54;20026;-82
2022/12/28 11:06:59;;;;;;;3.85;1.52;;;;;;;9.74;57.13;100097.44;1087656;54;20034;-79
2022/12/28 11:08:06;;;;;;;3.35;1.30;;;;;;;9.79;57.19;100092.53;1087802;54;20035;-80
2022/12/28 11:16:44;;;;;;;3.58;1.50;;;;;;;9.85;57.41;100085.78;1087630;54;20055;-81
2022/12/28 11:17:53;;;;;;;4.05;1.48;;;;;;;9.95;56.88;100075.09;1087700;54;20069;-81
2022/12/28 11:22:44;;;;;;;5.30;2.10;;;;;;;9.88;56.85;100069.47;1087367;54;20030;-80
2022/12/28 11:23:52;;;;;;;5.10;2.42;;;;;;;9.83;57.45;100071.75;1087338;54;20064;-80
2022/12/28 11:24:59;;;;;;;4.63;1.77;;;;;;;9.84;57.73;100068.91;1087389;54;20111;-80
2022/12/28 11:26:06;;;;;;;4.60;1.90;;;;;;;9.92;57.30;100072.75;1087376;54;20038;-80
2022/12/28 13:02:54;;;;;;;4.60;1.60;;;;;;;10.35;57.45;99932.50;1087104;54;20090;-82
2022/12/28 13:04:07;;;;;;;5.15;1.63;;;;;;;10.24;57.76;99933.53;1087876;54;20150;-82
2022/12/28 13:05:15;;;;;;;3.60;1.30;;;;;;;10.35;57.72;99926.28;1087648;54;20057;-80
2022/12/28 13:06:24;;;;;;;5.57;1.40;;;;;;;10.27;57.81;99927.03;1087779;54;20038;-82
2022/12/28 13:07:32;;;;;;;5.22;1.92;;;;;;;10.35;57.58;99918.28;1087750;54;20070;-82
2022/12/28 13:20:54;;;;;;;5.03;1.40;;;;;;;10.44;57.24;99918.28;1087571;54;20034;-81
2022/12/28 13:22:00;;;;;;;5.47;1.73;;;;;;;10.41;57.73;99910.53;1087569;54;20062;-80
2022/12/28 13:23:04;;;;;;;3.58;1.40;;;;;;;10.56;57.56;99908.22;1087566;54;20049;-80
2022/12/28 13:24:20;;;;;;;3.33;1.40;;;;;;;10.60;56.87;99908.78;1087570;54;20098;-81
2022/12/28 13:27:20;;;;;;;4.50;1.63;;;;;;;10.49;57.23;99895.59;1087697;54;20019;-80
2022/12/28 13:28:26;;;;;;;3.47;1.42;;;;;;;10.50;57.68;99894.59;1089660;31;20750;-82
2022/12/28 13:29:36;;;;;;;3.60;1.27;;;;;;;10.58;56.88;99889.41;1087834;54;20022;-81
2022/12/28 13:30:38;;;;;;;;;;;;;;;10.45;57.07;99895.06;1087925;54;20034;-81
2022/12/28 13:32:30;;;;;;;;;;;;;;;;;;;;;
2022/12/28 13:33:35;;;;;;;5.82;1.55;;;;;;;10.43;57.38;99889.03;1087450;54;21142;-81
2022/12/28 13:34:40;;;;;;;4.13;1.42;;;;;;;10.45;57.43;99885.22;1087346;54;20127;-81
2022/12/28 13:35:42;;;;;;;4.88;1.40;;;;;;;10.41;57.40;99885.66;1087424;54;20019;-82
2022/12/28 13:36:55;;;;;;;3.53;1.48;;;;;;;10.36;57.34;99878.06;1087490;54;20026;-83
2022/12/28 15:06:54;;;;;;;5.63;1.80;;;;;;;10.03;59.52;99826.88;1087662;54;20037;-81
2022/12/28 15:08:00;;;;;;;7.28;2.08;;;;;;;10.16;59.07;99818.50;1087402;54;20046;-81
2022/12/28 15:09:07;;;;;;;5.47;2.10;;;;;;;10.25;58.62;99824.81;1087459;54;20055;-81
2022/12/28 15:10:08;;;;;;;4.47;1.90;;;;;;;10.24;58.58;99821.31;1087384;54;20111;-82
2022/12/28 15:11:13;;;;;;;4.55;1.80;;;;;;;10.29;58.35;99821.69;1087275;54;20038;-81
2022/12/28 15:12:16;;;;;;;4.07;1.83;;;;;;;10.23;58.51;99824.09;1087394;54;20035;-80
2022/12/28 15:13:21;;;;;;;3.92;1.90;;;;;;;10.21;58.65;99824.28;1087413;54;20034;-82
2022/12/28 15:14:25;;;;;;;4.35;2.00;;;;;;;10.17;58.71;99824.72;1087438;54;20035;-81
2022/12/28 15:15:27;;;;;;;5.68;2.00;;;;;;;10.24;58.34;99815.09;1087326;54;20043;-80
2022/12/28 15:16:37;;;;;;;4.25;1.90;;;;;;;10.23;58.51;99818.78;1087614;54;20057;-82
2022/12/28 15:17:39;;;;;;;3.95;1.88;;;;;;;10.24;58.40;99813.28;1087504;54;20094;-83
2022/12/28 15:18:44;;;;;;;4.82;1.67;;;;;;;10.22;58.26;99815.28;1087683;54;20030;-83
2022/12/28 15:19:57;;;;;;;4.43;1.80;;;;;;;10.27;58.19;99812.16;1087781;54;20043;-83
2022/12/28 15:21:05;;;;;;;6.18;2.38;;;;;;;10.30;58.34;99814.50;1089967;46;20061;-81
2022/12/28 15:22:10;;;;;;;4.03;2.00;;;;;;;10.26;57.93;99800.59;1087720;54;20035;-80
2022/12/28 15:23:14;;;;;;;3.83;1.55;;;;;;;10.28;58.02;99814.66;1087875;54;20035;-82
2022/12/28 15:24:20;;;;;;;7.30;1.77;;;;;;;10.22;58.34;99811.75;1087968;54;20039;-81
2022/12/28 15:25:22;;;;;;;4.35;1.67;;;;;;;10.24;58.06;99812.44;1087839;54;20034;-82
2022/12/28 15:26:27;;;;;;;4.80;2.25;;;;;;;10.32;58.08;99801.03;1087839;54;20073;-82
2022/12/28 15:27:33;;;;;;;7.22;2.30;;;;;;;10.14;58.49;99812.50;1087753;54;20034;-81
2022/12/28 15:28:37;;;;;;;5.65;2.20;;;;;;;10.19;58.37;99806.72;1087793;54;20047;-82
2022/12/28 15:29:39;;;;;;;3.90;1.67;;;;;;;10.21;58.37;99799.38;1087811;54;20791;-81
2022/12/28 15:30:44;;;;;;;4.25;1.80;;;;;;;10.19;58.18;99790.69;1087631;54;20030;-81
2022/12/28 15:31:45;;;;;;;5.57;2.20;;;;;;;10.12;58.35;99804.63;1087452;54;20061;-79
2022/12/28 15:32:49;;;;;;;5.13;1.85;;;;;;;10.19;58.43;99804.03;1087432;54;20034;-81
2022/12/28 15:33:51;;;;;;;6.18;2.13;;;;;;;10.21;58.36;99802.03;1087643;54;20753;-81
2022/12/28 15:34:55;;;;;;;5.30;2.13;;;;;;;10.18;58.45;99802.34;1087481;54;20809;-82
2022/12/28 15:36:01;;;;;;;6.65;2.28;;;;;;;10.21;58.63;99804.72;1087584;54;20750;-81
2022/12/28 15:37:05;;;;;;;4.30;1.98;;;;;;;10.06;58.50;99807.06;1087709;54;20045;-81
2022/12/28 15:38:12;;;;;;;5.35;1.85;;;;;;;10.04;58.54;99804.50;1087613;54;20764;-81
2022/12/28 15:39:17;;;;;;;4.35;2.13;;;;;;;10.14;58.27;99801.81;1087786;54;20102;-81
2022/12/28 15:40:21;;;;;;;4.88;2.13;;;;;;;10.07;58.84;99809.56;1087610;54;20046;-81
2022/12/28 15:42:46;;;;;;;5.00;2.15;;;;;;;10.17;58.33;99803.34;1087729;54;20034;-81
2022/12/28 15:43:48;;;;;;;4.43;1.95;;;;;;;10.22;58.20;99798.38;1087860;54;20102;-81
2022/12/28 15:44:52;;;;;;;4.38;2.25;;;;;;;10.07;58.17;99798.88;1087814;54;20042;-81
2022/12/28 15:45:59;;;;;;;4.15;1.70;;;;;;;10.12;58.13;99806.47;1088199;54;20038;-83
2022/12/28 15:47:00;;;;;;;4.50;1.80;;;;;;;10.22;57.91;99798.38;1088177;54;20042;-83
2022/12/28 15:48:14;;;;;;;4.50;2.20;;;;;;;10.14;57.90;99804.47;1088114;54;20686;-83
2022/12/28 15:49:16;;;;;;;5.45;1.90;;;;;;;10.02;58.44;99802.97;1088036;54;20101;-82
2022/12/28 15:50:29;;;;;;;4.78;2.10;;;;;;;10.05;58.13;99806.19;1087647;54;20035;-81
2022/12/28 15:51:30;;;;;;;5.15;1.90;;;;;;;10.07;58.31;99800.69;1088262;54;20059;-84
2022/12/28 15:54:51;;;;;;;6.25;2.22;;;;;;;10.18;58.09;99794.34;1087673;54;20797;-81
2022/12/28 15:56:01;;;;;;;6.45;2.08;;;;;;;9.96;58.54;99796.41;1087724;54;20019;-80
2022/12/28 15:57:03;;;;;;;4.90;1.88;;;;;;;9.94;58.52;99798.38;1087700;54;20053;-81
2022/12/28 15:58:08;;;;;;;4.93;1.80;;;;;;;9.85;58.71;99794.75;1087841;54;20041;-81
2022/12/28 15:59:13;;;;;;;5.28;2.00;;;;;;;9.92;58.36;99798.53;1087902;54;20038;-82
2022/12/28 16:00:20;;;;;;;6.05;1.95;;;;;;;9.90;58.46;99802.34;1088127;54;20030;-83
2022/12/28 16:01:23;;;;;;;5.20;1.77;;;;;;;10.03;58.20;99800.16;1088472;46;20030;-81
2022/12/28 16:02:27;;;;;;;4.20;1.83;;;;;;;10.13;57.96;99800.97;1087818;54;20030;-80
2022/12/28 16:03:34;;;;;;;4.07;2.05;;;;;;;10.03;58.07;99791.31;1087636;54;20058;-81
2022/12/28 16:04:38;;;;;;;4.32;1.90;;;;;;;9.99;58.31;99796.13;1087959;54;20034;-84
2022/12/28 16:06:50;;;;;;;5.32;2.47;;;;;;;10.08;58.43;99786.34;1087224;54;19942;-81
2022/12/28 16:07:55;;;;;;;5.78;2.28;;;;;;;10.12;58.19;99785.91;1087963;54;20034;-82
2022/12/28 16:08:59;;;;;;;6.40;2.78;;;;;;;10.02;58.12;99790.47;1088001;54;20031;-81
2022/12/28 16:10:06;;;;;;;5.13;2.22;;;;;;;10.04;58.28;99788.50;1087987;54;20030;-82
2022/12/28 16:11:09;;;;;;;5.88;2.10;;;;;;;9.88;58.39;99794.44;1088013;54;20062;-82
2022/12/28 16:12:17;;;;;;;5.82;1.95;;;;;;;10.03;58.25;99783.31;1096046;39;20729;-82
2022/12/28 16:13:21;;;;;;;5.25;2.10;;;;;;;9.88;58.78;99777.59;1087870;54;20030;-83
2022/12/28 16:14:23;;;;;;;4.72;2.10;;;;;;;9.99;58.64;99788.09;1087738;54;20042;-82
2022/12/28 16:15:45;;;;;;;3.83;1.90;;;;;;;10.03;57.96;99780.63;1087963;54;20042;-84
2022/12/28 16:16:56;;;;;;;3.92;1.90;;;;;;;9.90;58.18;99780.97;1088245;54;20057;-83
2022/12/28 16:18:06;;;;;;;;;;;;;;;9.86;58.40;99775.09;1088464;54;20035;-84
2022/12/28 16:21:26;;;;;;;6.22;2.22;;;;;;;9.86;58.25;99775.09;1087915;54;20412;-82
2022/12/28 16:22:54;;;;;;;5.20;2.10;;;;;;;9.81;58.25;99767.53;1089895;46;20027;-81
2022/12/28 16:24:03;;;;;;;4.20;1.90;;;;;;;9.80;58.19;99768.50;1088144;54;20034;-81
2022/12/28 17:04:30;;;;;;;3.92;1.77;;;;;;;9.81;56.54;99740.81;1085620;54;20050;-79
2022/12/28 17:05:32;;;;;;;6.88;2.00;;;;;;;9.89;56.20;99734.72;1087106;54;20038;-78
2022/12/28 17:06:37;;;;;;;4.22;1.85;;;;;;;9.79;56.63;99736.59;1086584;54;20042;-79
2022/12/28 17:07:42;;;;;;;3.40;1.48;;;;;;;9.75;56.86;99738.72;1085895;54;20039;-78
2022/12/28 17:08:44;;;;;;;6.20;2.20;;;;;;;9.82;56.56;99739.81;1085167;39;20809;-78
2022/12/28 17:09:48;;;;;;;4.20;1.90;;;;;;;9.90;56.59;99732.91;1085653;54;20034;-79
2022/12/28 17:10:50;;;;;;;4.55;1.75;;;;;;;9.90;56.59;99728.41;1086197;54;20086;-79
2022/12/28 17:11:54;;;;;;;5.00;1.77;;;;;;;9.83;56.48;99732.66;1086084;54;20052;-79
2022/12/28 17:12:56;;;;;;;4.60;1.90;;;;;;;9.89;56.80;99731.22;1085706;54;20046;-79
2022/12/28 17:14:05;;;;;;;5.07;1.98;;;;;;;9.94;56.30;99728.94;1085785;54;20038;-79
2022/12/28 17:15:07;;;;;;;7.95;2.33;;;;;;;9.87;56.25;99727.84;1085664;54;20042;-78
2022/12/28 17:16:12;;;;;;;4.15;1.67;;;;;;;9.91;56.07;99722.06;1085680;39;20490;-78
2022/12/28 17:17:13;;;;;;;4.57;2.00;;;;;;;10.07;55.74;99723.25;1084751;54;20038;-78
2022/12/28 17:18:17;;;;;;;4.55;1.95;;;;;;;9.96;56.21;99726.97;1084197;54;20042;-79
2022/12/28 17:19:22;;;;;;;5.07;1.98;;;;;;;9.92;56.22;99726.44;1084405;46;20155;-78
2022/12/28 17:20:26;;;;;;;4.18;2.05;;;;;;;10.03;55.78;99722.72;1084509;54;20030;-78
2022/12/28 17:21:32;;;;;;;4.90;1.90;;;;;;;9.93;56.29;99719.25;1084821;46;20042;-78
2022/12/28 17:22:33;;;;;;;4.75;2.10;;;;;;;9.95;56.18;99725.28;1084369;54;20035;-78
2022/12/28 17:23:40;;;;;;;5.47;2.10;;;;;;;9.90;56.58;99728.41;1085486;54;20038;-77
2022/12/28 17:24:44;;;;;;;4.15;1.85;;;;;;;10.01;56.31;99724.72;1085878;54;20034;-79
2022/12/28 17:25:50;;;;;;;4.50;1.98;;;;;;;10.03;55.82;99724.56;1087045;39;20671;-78
2022/12/28 17:26:54;;;;;;;4.32;2.00;;;;;;;9.95;56.33;99727.97;1091325;39;20203;-79
2022/12/28 17:27:55;;;;;;;5.28;2.15;;;;;;;9.87;56.45;99727.84;1087664;46;20038;-78
2022/12/28 17:29:00;;;;;;;5.93;2.38;;;;;;;9.91;56.29;99724.75;1086067;46;20043;-79
2022/12/28 17:30:02;;;;;;;4.70;2.08;;;;;;;9.91;56.30;99723.91;1085538;54;20042;-78
2022/12/28 17:31:11;;;;;;;5.00;2.13;;;;;;;10.03;56.09;99717.38;1086502;39;20524;-79
2022/12/28 17:32:13;;;;;;;4.35;2.00;;;;;;;9.95;56.27;99719.94;1085051;54;20039;-79
2022/12/28 17:33:17;;;;;;;6.00;2.50;;;;;;;10.03;56.07;99711.19;1084997;54;20086;-79
2022/12/28 17:34:22;;;;;;;4.80;1.98;;;;;;;9.85;56.43;99717.34;1085753;54;20039;-78
2022/12/28 17:35:26;;;;;;;5.53;2.30;;;;;;;9.90;56.58;99714.22;1085530;54;20065;-78
2022/12/28 17:36:30;;;;;;;3.92;1.73;;;;;;;9.89;56.48;99710.69;1085683;54;20034;-79
2022/12/28 17:37:35;;;;;;;4.55;2.08;;;;;;;9.99;56.49;99703.47;1085123;54;20042;-78
2022/12/28 17:38:40;;;;;;;5.40;2.17;;;;;;;9.87;56.34;99707.31;1085743;54;20103;-81
2022/12/28 17:39:44;;;;;;;3.80;1.90;;;;;;;9.89;56.43;99704.53;1087399;39;20766;-78
2022/12/28 17:40:49;;;;;;;4.47;2.17;;;;;;;9.98;56.49;99696.44;1084862;54;20058;-79
2022/12/28 17:41:53;;;;;;;5.15;2.00;;;;;;;9.87;56.36;99704.66;1085395;54;20041;-79
2022/12/28 17:42:55;;;;;;;5.00;2.50;;;;;;;9.86;56.61;99692.31;1084849;54;20073;-79
2022/12/28 17:44:01;;;;;;;5.10;2.17;;;;;;;9.86;56.46;99696.81;1085009;54;20057;-78
2022/12/28 17:45:03;;;;;;;4.95;2.15;;;;;;;9.80;56.72;99696.44;1085924;54;20061;-79
2022/12/28 17:46:08;;;;;;;5.25;2.22;;;;;;;9.66;57.00;99699.56;1087199;54;20035;-78
2022/12/28 17:47:11;;;;;;;5.93;2.20;;;;;;;9.76;56.87;99699.53;1087060;54;20042;-79
2022/12/28 17:48:16;;;;;;;5.10;2.13;;;;;;;9.83;56.65;99689.94;1087317;54;20011;-78
2022/12/28 17:49:18;;;;;;;5.07;2.28;;;;;;;9.88;56.49;99693.00;1087137;54;20064;-79
2022/12/28 17:50:22;;;;;;;4.32;2.28;;;;;;;9.83;56.57;99689.94;1087212;54;20034;-78
2022/12/28 17:51:30;;;;;;;4.35;2.15;;;;;;;9.73;57.05;99695.31;1087048;54;20046;-79
2022/12/28 17:52:31;;;;;;;4.65;2.47;;;;;;;9.85;56.58;99693.31;1087081;54;20042;-80
2022/12/28 17:53:36;;;;;;;6.00;2.40;;;;;;;9.66;56.95;99697.75;1086904;54;20042;-78
2022/12/28 17:54:38;;;;;;;4.97;2.92;;;;;;;9.57;57.27;99703.97;1087091;54;20061;-79
2022/12/28 17:55:42;;;;;;;4.90;2.10;;;;;;;9.60;56.98;99705.50;1087216;54;20043;-80
2022/12/28 17:56:44;;;;;;;6.55;2.47;;;;;;;9.74;56.96;99697.00;1087362;54;20039;-80
2022/12/28 17:57:48;;;;;;;5.97;2.53;;;;;;;9.68;56.93;99697.59;1087221;54;20082;-80
2022/12/28 17:58:57;;;;;;;7.60;2.78;;;;;;;9.52;57.15;99696.41;1087476;39;20555;-81
2022/12/28 17:59:59;;;;;;;4.82;2.42;;;;;;;9.70;57.16;99692.09;1088918;39;20505;-80
2022/12/28 18:01:03;;;;;;;7.20;3.45;;;;;;;9.67;57.02;99693.25;1086902;54;20042;-81
2022/12/28 18:02:08;;;;;;;5.22;2.70;;;;;;;9.66;56.92;99689.75;1087084;46;20034;-80
2022/12/28 18:03:12;;;;;;;5.93;2.60;;;;;;;9.77;56.90;99691.38;1086407;54;20146;-79
2022/12/28 18:04:16;;;;;;;6.25;2.50;;;;;;;9.78;56.49;99689.53;1085687;54;20038;-80
2022/12/28 18:05:20;;;;;;;5.20;2.38;;;;;;;9.80;56.33;99682.22;1086125;54;20061;-78
2022/12/28 18:06:22;;;;;;;5.20;2.42;;;;;;;9.65;56.85;99681.88;1086120;54;20050;-79
2022/12/28 18:07:29;;;;;;;5.18;2.80;;;;;;;9.51;57.30;99676.03;1086076;54;20034;-79
2022/12/28 18:08:31;;;;;;;4.63;2.65;;;;;;;9.58;57.13;99678.13;1085383;54;20039;-79
2022/12/28 18:09:36;;;;;;;6.18;3.20;;;;;;;9.52;57.00;99672.41;1084637;54;20042;-79
2022/12/28 18:10:37;;;;;;;6.30;2.70;;;;;;;9.59;57.23;99667.28;1084777;54;20756;-79
2022/12/28 18:11:42;;;;;;;5.25;2.35;;;;;;;9.47;57.42;99679.97;1085287;54;20069;-80
2022/12/28 18:12:43;;;;;;;5.68;2.60;;;;;;;9.51;57.20;99673.38;1085075;54;20173;-80
2022/12/28 18:13:49;;;;;;;5.93;2.58;;;;;;;9.51;57.13;99665.38;1084903;54;20050;-79
2022/12/28 18:14:50;;;;;;;6.35;3.10;;;;;;;9.51;57.63;99665.38;1084921;47;20109;-79
2022/12/28 18:15:55;;;;;;;5.15;2.53;;;;;;;9.57;56.95;99657.75;1084698;47;20046;-79
2022/12/28 18:16:57;;;;;;;5.25;2.67;;;;;;;9.38;57.30;99654.19;1083982;54;20118;-78
2022/12/28 18:18:01;;;;;;;4.75;2.70;;;;;;;9.43;57.60;99661.75;1084330;39;20477;-78
2022/12/28 18:19:03;;;;;;;5.05;2.88;;;;;;;9.49;57.20;99666.50;1085212;54;20055;-78
2022/12/28 18:20:09;;;;;;;5.70;2.95;;;;;;;9.29;57.36;99663.94;1085152;54;20034;-79
2022/12/28 18:21:13;;;;;;;5.45;2.67;;;;;;;9.46;57.18;99651.63;1085647;54;20065;-78
2022/12/28 18:22:18;;;;;;;9.20;3.55;;;;;;;9.54;56.95;99658.06;1086669;47;20046;-78
2022/12/28 18:25:43;;;;;;;5.18;2.80;;;;;;;9.29;57.43;99652.41;1086976;54;20043;-78
2022/12/28 18:26:46;;;;;;;5.05;2.63;;;;;;;9.39;57.42;99645.19;1087283;54;20050;-79
2022/12/28 18:27:51;;;;;;;5.20;2.38;;;;;;;9.33;57.25;99641.28;1087090;54;20034;-77
2022/12/28 18:28:54;;;;;;;7.32;3.03;;;;;;;9.20;57.69;99646.94;1087165;54;20098;-78
2022/12/28 18:29:58;;;;;;;6.07;2.95;;;;;;;9.31;57.25;99632.59;1087019;54;20404;-79
2022/12/28 18:31:01;;;;;;;6.53;2.88;;;;;;;9.36;57.37;99635.66;1086943;54;20054;-79
2022/12/28 18:32:05;;;;;;;5.57;2.83;;;;;;;9.22;57.56;99644.13;1087162;54;20034;-78
2022/12/28 18:33:09;;;;;;;5.68;2.70;;;;;;;9.23;57.86;99639.66;1087093;54;20034;-78
2022/12/28 18:34:11;;;;;;;7.28;3.30;;;;;;;9.21;57.52;99639.78;1086663;54;20046;-78
2022/12/28 18:35:16;;;;;;;6.53;2.80;;;;;;;9.17;57.70;99631.22;1086477;54;20027;-79
2022/12/28 18:36:17;;;;;;;6.25;3.13;;;;;;;9.25;57.46;99643.03;1086350;54;20034;-78